sensor_id;sensor_type;location;lat;lon;timestamp;temperature;humidity
37530;DHT22;23374;52.758;6.872;2022-08-03T00:01:15;22.10;1.00
37530;DHT22;23374;52.758;6.872;2022-08-03T00:03:36;22.10;1.00
37530;DHT22;23374;52.758;6.872;2022-08-03T00:05:56;22.10;1.00
37530;DHT22;23374;52.758;6.872;2022-08-03T00:08:16;22.10;1.00
37530;DHT22;23374;52.758;6.872;2022-08-03T00:10:36;22.10;1.00
37530;DHT22;23374;52.758;6.872;2022-08-03T00:12:57;22.00;1.00
37530;DHT22;23374;52.758;6.872;2022-08-03T00:15:17;22.00;1.00
37530;DHT22;23374;52.758;6.872;2022-08-03T00:17:37;21.90;1.00
37530;DHT22;23374;52.758;6.872;2022-08-03T00:19:57;21.90;1.00
37530;DHT22;23374;52.758;6.872;2022-08-03T00:22:17;21.80;1.00
37530;DHT22;23374;52.758;6.872;2022-08-03T00:24:38;21.80;1.00
37530;DHT22;23374;52.758;6.872;2022-08-03T00:28:29;21.70;2.90
37530;DHT22;23374;52.758;6.872;2022-08-03T00:30:49;21.70;1.00
37530;DHT22;23374;52.758;6.872;2022-08-03T00:33:10;21.60;1.00
37530;DHT22;23374;52.758;6.872;2022-08-03T00:35:31;21.60;1.00
37530;DHT22;23374;52.758;6.872;2022-08-03T00:37:51;21.60;1.00
37530;DHT22;23374;52.758;6.872;2022-08-03T00:40:13;21.50;1.00
37530;DHT22;23374;52.758;6.872;2022-08-03T00:42:34;21.50;1.00
37530;DHT22;23374;52.758;6.872;2022-08-03T00:44:54;21.50;1.00
37530;DHT22;23374;52.758;6.872;2022-08-03T00:47:14;21.40;1.00
37530;DHT22;23374;52.758;6.872;2022-08-03T00:49:36;21.30;1.00
37530;DHT22;23374;52.758;6.872;2022-08-03T00:51:59;21.30;1.00
37530;DHT22;23374;52.758;6.872;2022-08-03T00:54:21;21.30;1.00
37530;DHT22;23374;52.758;6.872;2022-08-03T00:56:42;21.30;1.00
37530;DHT22;23374;52.758;6.872;2022-08-03T00:59:03;21.20;1.00
37530;DHT22;23374;52.758;6.872;2022-08-03T01:01:23;21.20;1.00
37530;DHT22;23374;52.758;6.872;2022-08-03T01:03:44;21.20;1.00
37530;DHT22;23374;52.758;6.872;2022-08-03T01:06:21;21.10;1.00
37530;DHT22;23374;52.758;6.872;2022-08-03T01:12:21;21.10;1.00
37530;DHT22;23374;52.758;6.872;2022-08-03T01:17:48;21.20;38.00
37530;DHT22;23374;52.758;6.872;2022-08-03T01:20:12;21.10;49.90
37530;DHT22;23374;52.758;6.872;2022-08-03T01:30:07;21.10;80.20
37530;DHT22;23374;52.758;6.872;2022-08-03T02:09:50;21.10;57.90
37530;DHT22;23374;52.758;6.872;2022-08-03T02:12:13;20.70;53.70
37530;DHT22;23374;52.758;6.872;2022-08-03T02:14:35;20.60;1.00
37530;DHT22;23374;52.758;6.872;2022-08-03T02:16:56;20.60;1.00
37530;DHT22;23374;52.758;6.872;2022-08-03T02:19:18;20.60;4.10
37530;DHT22;23374;52.758;6.872;2022-08-03T02:21:40;20.60;1.00
37530;DHT22;23374;52.758;6.872;2022-08-03T02:24:04;20.60;6.30
37530;DHT22;23374;52.758;6.872;2022-08-03T02:28:42;20.60;3.10
37530;DHT22;23374;52.758;6.872;2022-08-03T02:31:12;20.50;1.00
37530;DHT22;23374;52.758;6.872;2022-08-03T02:33:46;20.50;1.00
37530;DHT22;23374;52.758;6.872;2022-08-03T02:36:10;20.40;1.00
37530;DHT22;23374;52.758;6.872;2022-08-03T02:38:35;20.40;1.00
37530;DHT22;23374;52.758;6.872;2022-08-03T02:40:56;20.40;1.00
37530;DHT22;23374;52.758;6.872;2022-08-03T02:43:19;20.30;1.00
37530;DHT22;23374;52.758;6.872;2022-08-03T02:45:43;20.30;1.00
37530;DHT22;23374;52.758;6.872;2022-08-03T02:48:06;20.30;1.00
37530;DHT22;23374;52.758;6.872;2022-08-03T02:50:28;20.20;9.80
37530;DHT22;23374;52.758;6.872;2022-08-03T02:52:51;20.30;29.60
37530;DHT22;23374;52.758;6.872;2022-08-03T02:55:13;20.30;48.60
37530;DHT22;23374;52.758;6.872;2022-08-03T02:57:35;20.30;53.10
37530;DHT22;23374;52.758;6.872;2022-08-03T02:59:57;20.30;52.90
37530;DHT22;23374;52.758;6.872;2022-08-03T03:02:19;20.30;59.80
37530;DHT22;23374;52.758;6.872;2022-08-03T03:04:39;20.30;60.90
37530;DHT22;23374;52.758;6.872;2022-08-03T03:07:01;20.30;72.70
37530;DHT22;23374;52.758;6.872;2022-08-03T03:09:21;20.30;72.30
37530;DHT22;23374;52.758;6.872;2022-08-03T03:11:43;20.30;83.70
37530;DHT22;23374;52.758;6.872;2022-08-03T03:14:04;20.30;93.70
37530;DHT22;23374;52.758;6.872;2022-08-03T03:16:28;20.30;98.40
37530;DHT22;23374;52.758;6.872;2022-08-03T03:18:49;20.30;99.90
37530;DHT22;23374;52.758;6.872;2022-08-03T03:21:12;20.30;99.90
37530;DHT22;23374;52.758;6.872;2022-08-03T03:23:39;20.20;99.90
37530;DHT22;23374;52.758;6.872;2022-08-03T03:26:00;20.20;99.90
37530;DHT22;23374;52.758;6.872;2022-08-03T03:28:24;20.20;99.90
37530;DHT22;23374;52.758;6.872;2022-08-03T03:30:45;20.20;99.90
37530;DHT22;23374;52.758;6.872;2022-08-03T03:33:05;20.10;99.90
37530;DHT22;23374;52.758;6.872;2022-08-03T03:35:26;20.10;99.90
37530;DHT22;23374;52.758;6.872;2022-08-03T03:37:47;20.10;99.90
37530;DHT22;23374;52.758;6.872;2022-08-03T03:40:09;20.00;99.90
37530;DHT22;23374;52.758;6.872;2022-08-03T03:42:30;20.00;99.90
37530;DHT22;23374;52.758;6.872;2022-08-03T03:44:51;20.00;99.90
37530;DHT22;23374;52.758;6.872;2022-08-03T03:47:12;20.00;99.90
37530;DHT22;23374;52.758;6.872;2022-08-03T03:49:32;20.00;99.90
37530;DHT22;23374;52.758;6.872;2022-08-03T03:51:54;20.00;99.90
37530;DHT22;23374;52.758;6.872;2022-08-03T03:54:14;20.00;99.90
37530;DHT22;23374;52.758;6.872;2022-08-03T03:56:34;20.00;99.90
37530;DHT22;23374;52.758;6.872;2022-08-03T03:58:55;20.00;99.90
37530;DHT22;23374;52.758;6.872;2022-08-03T04:01:16;19.90;99.90
37530;DHT22;23374;52.758;6.872;2022-08-03T04:03:36;19.90;99.90
37530;DHT22;23374;52.758;6.872;2022-08-03T04:05:57;19.90;99.90
37530;DHT22;23374;52.758;6.872;2022-08-03T04:08:36;19.90;99.90
37530;DHT22;23374;52.758;6.872;2022-08-03T04:11:29;19.90;99.90
37530;DHT22;23374;52.758;6.872;2022-08-03T04:14:10;19.90;99.90
37530;DHT22;23374;52.758;6.872;2022-08-03T04:16:37;19.90;99.90
37530;DHT22;23374;52.758;6.872;2022-08-03T04:19:04;19.90;99.90
37530;DHT22;23374;52.758;6.872;2022-08-03T04:21:29;19.90;99.90
37530;DHT22;23374;52.758;6.872;2022-08-03T04:23:57;20.00;99.90
37530;DHT22;23374;52.758;6.872;2022-08-03T04:26:21;20.00;99.90
37530;DHT22;23374;52.758;6.872;2022-08-03T04:28:44;20.00;99.90
37530;DHT22;23374;52.758;6.872;2022-08-03T04:31:05;20.00;99.90
37530;DHT22;23374;52.758;6.872;2022-08-03T04:33:28;20.00;99.90
37530;DHT22;23374;52.758;6.872;2022-08-03T04:35:49;20.00;99.90
37530;DHT22;23374;52.758;6.872;2022-08-03T04:38:14;20.00;99.90
37530;DHT22;23374;52.758;6.872;2022-08-03T04:40:41;20.00;99.90
37530;DHT22;23374;52.758;6.872;2022-08-03T04:43:04;20.00;99.90
37530;DHT22;23374;52.758;6.872;2022-08-03T04:45:26;20.00;99.90
37530;DHT22;23374;52.758;6.872;2022-08-03T04:47:48;20.00;99.90
37530;DHT22;23374;52.758;6.872;2022-08-03T04:50:09;20.00;99.90
37530;DHT22;23374;52.758;6.872;2022-08-03T04:52:30;20.00;99.90
37530;DHT22;23374;52.758;6.872;2022-08-03T04:54:51;20.00;99.90
37530;DHT22;23374;52.758;6.872;2022-08-03T04:57:11;20.00;99.90
37530;DHT22;23374;52.758;6.872;2022-08-03T04:59:32;20.00;99.90
37530;DHT22;23374;52.758;6.872;2022-08-03T05:01:52;20.10;99.90
37530;DHT22;23374;52.758;6.872;2022-08-03T05:04:12;20.10;99.90
37530;DHT22;23374;52.758;6.872;2022-08-03T05:06:33;20.10;99.90
37530;DHT22;23374;52.758;6.872;2022-08-03T05:08:54;20.20;99.90
37530;DHT22;23374;52.758;6.872;2022-08-03T05:11:15;20.30;99.90
37530;DHT22;23374;52.758;6.872;2022-08-03T05:13:36;20.50;99.90
37530;DHT22;23374;52.758;6.872;2022-08-03T05:15:56;20.70;99.90
37530;DHT22;23374;52.758;6.872;2022-08-03T05:18:16;21.00;99.90
37530;DHT22;23374;52.758;6.872;2022-08-03T05:20:37;21.30;99.90
37530;DHT22;23374;52.758;6.872;2022-08-03T05:22:58;21.60;99.90
37530;DHT22;23374;52.758;6.872;2022-08-03T05:25:20;21.90;99.90
37530;DHT22;23374;52.758;6.872;2022-08-03T05:27:41;22.20;99.90
37530;DHT22;23374;52.758;6.872;2022-08-03T05:30:01;22.40;99.90
37530;DHT22;23374;52.758;6.872;2022-08-03T05:32:21;22.70;99.90
37530;DHT22;23374;52.758;6.872;2022-08-03T05:34:42;22.80;99.90
37530;DHT22;23374;52.758;6.872;2022-08-03T05:37:03;22.90;69.50
37530;DHT22;23374;52.758;6.872;2022-08-03T05:39:23;23.10;93.60
37530;DHT22;23374;52.758;6.872;2022-08-03T05:41:43;23.30;77.20
37530;DHT22;23374;52.758;6.872;2022-08-03T05:44:03;23.30;50.40
37530;DHT22;23374;52.758;6.872;2022-08-03T05:46:24;23.30;59.60
37530;DHT22;23374;52.758;6.872;2022-08-03T05:48:44;23.30;69.90
37530;DHT22;23374;52.758;6.872;2022-08-03T05:51:04;23.30;45.30
37530;DHT22;23374;52.758;6.872;2022-08-03T05:53:26;23.40;46.70
37530;DHT22;23374;52.758;6.872;2022-08-03T05:55:46;23.50;59.30
37530;DHT22;23374;52.758;6.872;2022-08-03T05:58:07;23.70;54.70
37530;DHT22;23374;52.758;6.872;2022-08-03T06:00:27;23.80;31.90
37530;DHT22;23374;52.758;6.872;2022-08-03T06:02:47;23.80;36.90
37530;DHT22;23374;52.758;6.872;2022-08-03T06:05:08;23.90;29.80
37530;DHT22;23374;52.758;6.872;2022-08-03T06:07:29;23.70;30.10
37530;DHT22;23374;52.758;6.872;2022-08-03T06:09:49;23.70;34.40
37530;DHT22;23374;52.758;6.872;2022-08-03T06:12:10;23.50;26.40
37530;DHT22;23374;52.758;6.872;2022-08-03T06:14:30;23.10;34.80
37530;DHT22;23374;52.758;6.872;2022-08-03T06:16:50;22.80;47.60
37530;DHT22;23374;52.758;6.872;2022-08-03T06:19:10;22.70;75.70
37530;DHT22;23374;52.758;6.872;2022-08-03T06:21:30;22.50;89.00
37530;DHT22;23374;52.758;6.872;2022-08-03T06:23:50;22.30;94.60
37530;DHT22;23374;52.758;6.872;2022-08-03T06:26:10;22.20;99.90
37530;DHT22;23374;52.758;6.872;2022-08-03T06:28:30;22.20;99.90
37530;DHT22;23374;52.758;6.872;2022-08-03T06:30:51;22.10;99.90
37530;DHT22;23374;52.758;6.872;2022-08-03T06:33:11;22.10;99.90
37530;DHT22;23374;52.758;6.872;2022-08-03T06:35:32;22.00;99.90
37530;DHT22;23374;52.758;6.872;2022-08-03T06:37:53;21.90;99.90
37530;DHT22;23374;52.758;6.872;2022-08-03T06:40:15;21.90;99.90
37530;DHT22;23374;52.758;6.872;2022-08-03T06:42:35;21.90;99.90
37530;DHT22;23374;52.758;6.872;2022-08-03T06:44:55;21.90;99.90
37530;DHT22;23374;52.758;6.872;2022-08-03T06:47:15;21.90;99.90
37530;DHT22;23374;52.758;6.872;2022-08-03T06:49:36;22.00;99.90
37530;DHT22;23374;52.758;6.872;2022-08-03T06:51:56;22.00;99.90
37530;DHT22;23374;52.758;6.872;2022-08-03T06:54:16;22.10;99.90
37530;DHT22;23374;52.758;6.872;2022-08-03T06:56:36;22.00;99.90
37530;DHT22;23374;52.758;6.872;2022-08-03T06:58:57;22.00;99.90
37530;DHT22;23374;52.758;6.872;2022-08-03T07:01:17;22.10;99.90
37530;DHT22;23374;52.758;6.872;2022-08-03T07:03:37;22.10;99.90
37530;DHT22;23374;52.758;6.872;2022-08-03T07:06:00;22.10;99.90
37530;DHT22;23374;52.758;6.872;2022-08-03T07:08:20;22.20;99.90
37530;DHT22;23374;52.758;6.872;2022-08-03T07:10:40;22.20;99.90
37530;DHT22;23374;52.758;6.872;2022-08-03T07:13:00;22.20;99.90
37530;DHT22;23374;52.758;6.872;2022-08-03T07:15:20;22.20;99.90
37530;DHT22;23374;52.758;6.872;2022-08-03T07:17:42;22.30;99.90
37530;DHT22;23374;52.758;6.872;2022-08-03T07:20:05;22.30;99.90
37530;DHT22;23374;52.758;6.872;2022-08-03T07:22:26;22.40;99.90
37530;DHT22;23374;52.758;6.872;2022-08-03T07:24:46;22.40;99.90
37530;DHT22;23374;52.758;6.872;2022-08-03T07:27:08;22.50;99.90
37530;DHT22;23374;52.758;6.872;2022-08-03T07:29:28;22.50;99.90
37530;DHT22;23374;52.758;6.872;2022-08-03T07:31:48;22.60;99.90
37530;DHT22;23374;52.758;6.872;2022-08-03T07:34:08;22.60;99.90
37530;DHT22;23374;52.758;6.872;2022-08-03T07:36:28;22.60;99.90
37530;DHT22;23374;52.758;6.872;2022-08-03T07:38:49;22.60;99.90
37530;DHT22;23374;52.758;6.872;2022-08-03T07:41:10;22.70;99.90
37530;DHT22;23374;52.758;6.872;2022-08-03T07:43:30;22.70;99.90
37530;DHT22;23374;52.758;6.872;2022-08-03T07:45:51;22.70;99.90
37530;DHT22;23374;52.758;6.872;2022-08-03T07:48:11;22.70;99.90
37530;DHT22;23374;52.758;6.872;2022-08-03T07:50:31;22.80;99.90
37530;DHT22;23374;52.758;6.872;2022-08-03T07:52:52;22.80;99.90
37530;DHT22;23374;52.758;6.872;2022-08-03T07:55:20;22.90;99.90
37530;DHT22;23374;52.758;6.872;2022-08-03T07:57:41;23.00;99.90
37530;DHT22;23374;52.758;6.872;2022-08-03T08:00:03;23.10;59.90
37530;DHT22;23374;52.758;6.872;2022-08-03T08:02:24;23.10;49.10
37530;DHT22;23374;52.758;6.872;2022-08-03T08:04:44;23.20;48.00
37530;DHT22;23374;52.758;6.872;2022-08-03T08:07:04;23.20;36.40
37530;DHT22;23374;52.758;6.872;2022-08-03T08:09:25;23.30;40.00
37530;DHT22;23374;52.758;6.872;2022-08-03T08:11:45;23.40;41.40
37530;DHT22;23374;52.758;6.872;2022-08-03T08:14:05;23.50;40.00
37530;DHT22;23374;52.758;6.872;2022-08-03T08:16:27;23.60;38.80
37530;DHT22;23374;52.758;6.872;2022-08-03T08:18:47;23.70;38.20
37530;DHT22;23374;52.758;6.872;2022-08-03T08:21:07;23.80;40.60
37530;DHT22;23374;52.758;6.872;2022-08-03T08:23:28;23.90;27.30
37530;DHT22;23374;52.758;6.872;2022-08-03T08:25:49;23.90;23.60
37530;DHT22;23374;52.758;6.872;2022-08-03T08:28:09;23.90;20.80
37530;DHT22;23374;52.758;6.872;2022-08-03T08:30:31;24.00;29.00
37530;DHT22;23374;52.758;6.872;2022-08-03T08:32:51;24.00;23.50
37530;DHT22;23374;52.758;6.872;2022-08-03T08:35:12;24.10;9.00
37530;DHT22;23374;52.758;6.872;2022-08-03T08:37:32;24.20;1.20
37530;DHT22;23374;52.758;6.872;2022-08-03T08:39:55;24.30;1.00
37530;DHT22;23374;52.758;6.872;2022-08-03T08:42:16;24.30;1.00
37530;DHT22;23374;52.758;6.872;2022-08-03T08:44:36;24.40;1.00
37530;DHT22;23374;52.758;6.872;2022-08-03T08:46:57;24.40;1.00
37530;DHT22;23374;52.758;6.872;2022-08-03T08:49:22;24.50;1.00
37530;DHT22;23374;52.758;6.872;2022-08-03T08:51:49;24.60;1.00
37530;DHT22;23374;52.758;6.872;2022-08-03T08:54:11;24.70;1.00
37530;DHT22;23374;52.758;6.872;2022-08-03T08:56:33;24.70;1.00
37530;DHT22;23374;52.758;6.872;2022-08-03T08:58:58;24.80;1.00
37530;DHT22;23374;52.758;6.872;2022-08-03T09:01:19;24.90;1.00
37530;DHT22;23374;52.758;6.872;2022-08-03T09:03:40;24.90;1.00
37530;DHT22;23374;52.758;6.872;2022-08-03T09:06:03;24.90;1.00
37530;DHT22;23374;52.758;6.872;2022-08-03T09:08:24;25.00;1.00
37530;DHT22;23374;52.758;6.872;2022-08-03T09:10:44;25.00;1.00
37530;DHT22;23374;52.758;6.872;2022-08-03T09:13:07;25.00;1.00
37530;DHT22;23374;52.758;6.872;2022-08-03T09:15:32;25.10;1.00
37530;DHT22;23374;52.758;6.872;2022-08-03T09:17:55;25.20;1.00
37530;DHT22;23374;52.758;6.872;2022-08-03T09:20:16;25.40;1.00
37530;DHT22;23374;52.758;6.872;2022-08-03T09:23:08;25.40;1.00
37530;DHT22;23374;52.758;6.872;2022-08-03T09:25:39;25.50;1.00
37530;DHT22;23374;52.758;6.872;2022-08-03T09:28:20;25.60;1.00
37530;DHT22;23374;52.758;6.872;2022-08-03T09:30:57;25.70;1.00
37530;DHT22;23374;52.758;6.872;2022-08-03T09:33:18;25.80;1.00
37530;DHT22;23374;52.758;6.872;2022-08-03T09:35:46;25.80;1.00
37530;DHT22;23374;52.758;6.872;2022-08-03T09:38:20;25.90;1.00
37530;DHT22;23374;52.758;6.872;2022-08-03T09:40:44;26.00;1.00
37530;DHT22;23374;52.758;6.872;2022-08-03T09:43:06;26.00;1.00
37530;DHT22;23374;52.758;6.872;2022-08-03T09:45:27;26.00;1.00
37530;DHT22;23374;52.758;6.872;2022-08-03T09:47:48;26.10;1.00
37530;DHT22;23374;52.758;6.872;2022-08-03T09:50:09;26.30;1.00
37530;DHT22;23374;52.758;6.872;2022-08-03T09:52:35;26.30;1.00
37530;DHT22;23374;52.758;6.872;2022-08-03T09:54:55;26.30;1.00
37530;DHT22;23374;52.758;6.872;2022-08-03T09:57:25;26.40;1.00
37530;DHT22;23374;52.758;6.872;2022-08-03T09:59:46;26.50;1.00
37530;DHT22;23374;52.758;6.872;2022-08-03T10:02:24;26.60;99.90
37530;DHT22;23374;52.758;6.872;2022-08-03T10:04:49;26.70;1.00
37530;DHT22;23374;52.758;6.872;2022-08-03T10:07:12;26.80;1.00
37530;DHT22;23374;52.758;6.872;2022-08-03T10:09:33;26.90;1.00
37530;DHT22;23374;52.758;6.872;2022-08-03T10:11:53;26.90;1.00
37530;DHT22;23374;52.758;6.872;2022-08-03T10:14:14;27.00;21.10
37530;DHT22;23374;52.758;6.872;2022-08-03T10:16:41;27.00;1.00
37530;DHT22;23374;52.758;6.872;2022-08-03T10:19:04;27.10;1.00
37530;DHT22;23374;52.758;6.872;2022-08-03T10:21:25;27.20;99.90
37530;DHT22;23374;52.758;6.872;2022-08-03T10:23:49;27.30;54.60
37530;DHT22;23374;52.758;6.872;2022-08-03T10:26:15;27.30;51.20
37530;DHT22;23374;52.758;6.872;2022-08-03T10:28:41;27.40;1.00
37530;DHT22;23374;52.758;6.872;2022-08-03T10:31:05;27.40;1.00
37530;DHT22;23374;52.758;6.872;2022-08-03T10:33:31;27.60;99.90
37530;DHT22;23374;52.758;6.872;2022-08-03T10:35:56;27.70;1.00
37530;DHT22;23374;52.758;6.872;2022-08-03T10:38:28;27.80;1.00
37530;DHT22;23374;52.758;6.872;2022-08-03T10:40:53;27.90;99.90
37530;DHT22;23374;52.758;6.872;2022-08-03T10:43:39;28.00;1.00
37530;DHT22;23374;52.758;6.872;2022-08-03T10:46:04;28.10;99.90
37530;DHT22;23374;52.758;6.872;2022-08-03T10:48:26;28.20;1.00
37530;DHT22;23374;52.758;6.872;2022-08-03T10:50:48;28.30;99.90
37530;DHT22;23374;52.758;6.872;2022-08-03T10:53:09;28.30;1.00
37530;DHT22;23374;52.758;6.872;2022-08-03T10:55:44;28.40;99.90
37530;DHT22;23374;52.758;6.872;2022-08-03T10:58:46;28.50;1.00
37530;DHT22;23374;52.758;6.872;2022-08-03T11:01:11;28.60;1.00
37530;DHT22;23374;52.758;6.872;2022-08-03T11:03:32;28.60;15.60
37530;DHT22;23374;52.758;6.872;2022-08-03T11:05:52;28.60;19.40
37530;DHT22;23374;52.758;6.872;2022-08-03T11:08:32;28.60;12.70
37530;DHT22;23374;52.758;6.872;2022-08-03T11:11:23;28.70;1.00
37530;DHT22;23374;52.758;6.872;2022-08-03T11:15:01;28.80;1.00
37530;DHT22;23374;52.758;6.872;2022-08-03T11:17:23;28.90;10.00
37530;DHT22;23374;52.758;6.872;2022-08-03T11:19:48;28.90;1.00
37530;DHT22;23374;52.758;6.872;2022-08-03T11:22:09;28.90;1.00
37530;DHT22;23374;52.758;6.872;2022-08-03T11:25:03;29.00;1.00
37530;DHT22;23374;52.758;6.872;2022-08-03T11:27:27;29.10;1.00
37530;DHT22;23374;52.758;6.872;2022-08-03T11:31:54;29.20;99.90
37530;DHT22;23374;52.758;6.872;2022-08-03T11:34:15;29.20;99.90
37530;DHT22;23374;52.758;6.872;2022-08-03T11:37:20;29.20;99.90
37530;DHT22;23374;52.758;6.872;2022-08-03T11:39:43;29.40;99.90
37530;DHT22;23374;52.758;6.872;2022-08-03T12:14:45;29.50;36.50
37530;DHT22;23374;52.758;6.872;2022-08-03T12:17:06;30.30;99.90
37530;DHT22;23374;52.758;6.872;2022-08-03T12:19:26;30.40;99.90
37530;DHT22;23374;52.758;6.872;2022-08-03T12:21:50;30.50;99.90
37530;DHT22;23374;52.758;6.872;2022-08-03T12:24:10;30.60;99.90
37530;DHT22;23374;52.758;6.872;2022-08-03T12:26:46;30.70;99.90
37530;DHT22;23374;52.758;6.872;2022-08-03T12:29:07;30.60;1.00
37530;DHT22;23374;52.758;6.872;2022-08-03T12:31:27;30.60;16.00
37530;DHT22;23374;52.758;6.872;2022-08-03T12:34:02;30.50;1.00
37530;DHT22;23374;52.758;6.872;2022-08-03T12:36:23;30.40;99.90
37530;DHT22;23374;52.758;6.872;2022-08-03T12:38:55;30.50;99.90
37530;DHT22;23374;52.758;6.872;2022-08-03T12:41:33;30.60;1.00
37530;DHT22;23374;52.758;6.872;2022-08-03T12:43:54;30.70;99.90
37530;DHT22;23374;52.758;6.872;2022-08-03T12:46:17;30.80;1.00
37530;DHT22;23374;52.758;6.872;2022-08-03T12:49:14;30.90;99.90
37530;DHT22;23374;52.758;6.872;2022-08-03T12:51:58;31.20;1.00
37530;DHT22;23374;52.758;6.872;2022-08-03T12:54:27;31.20;1.00
37530;DHT22;23374;52.758;6.872;2022-08-03T12:57:11;31.10;1.00
37530;DHT22;23374;52.758;6.872;2022-08-03T12:59:42;31.10;97.10
37530;DHT22;23374;52.758;6.872;2022-08-03T13:02:17;31.20;22.00
37530;DHT22;23374;52.758;6.872;2022-08-03T13:04:38;31.30;99.90
37530;DHT22;23374;52.758;6.872;2022-08-03T13:07:04;31.30;1.00
37530;DHT22;23374;52.758;6.872;2022-08-03T13:09:26;31.40;1.00
37530;DHT22;23374;52.758;6.872;2022-08-03T13:12:06;31.40;1.00
37530;DHT22;23374;52.758;6.872;2022-08-03T13:14:27;31.40;1.00
37530;DHT22;23374;52.758;6.872;2022-08-03T13:16:48;31.50;1.00
37530;DHT22;23374;52.758;6.872;2022-08-03T13:19:08;31.40;12.70
37530;DHT22;23374;52.758;6.872;2022-08-03T13:21:29;31.50;1.00
37530;DHT22;23374;52.758;6.872;2022-08-03T13:23:50;31.60;1.00
37530;DHT22;23374;52.758;6.872;2022-08-03T13:26:10;31.70;1.00
37530;DHT22;23374;52.758;6.872;2022-08-03T13:28:31;31.70;1.00
37530;DHT22;23374;52.758;6.872;2022-08-03T13:30:51;31.70;1.00
37530;DHT22;23374;52.758;6.872;2022-08-03T13:33:13;31.60;1.00
37530;DHT22;23374;52.758;6.872;2022-08-03T13:35:34;31.60;1.00
37530;DHT22;23374;52.758;6.872;2022-08-03T13:37:54;31.50;1.00
37530;DHT22;23374;52.758;6.872;2022-08-03T13:40:14;31.40;1.00
37530;DHT22;23374;52.758;6.872;2022-08-03T13:42:35;31.30;1.00
37530;DHT22;23374;52.758;6.872;2022-08-03T13:44:55;31.40;1.00
37530;DHT22;23374;52.758;6.872;2022-08-03T13:47:16;31.40;1.00
37530;DHT22;23374;52.758;6.872;2022-08-03T13:49:36;31.50;1.00
37530;DHT22;23374;52.758;6.872;2022-08-03T13:51:57;31.60;99.90
37530;DHT22;23374;52.758;6.872;2022-08-03T13:54:17;31.60;1.00
37530;DHT22;23374;52.758;6.872;2022-08-03T13:56:38;31.60;99.90
37530;DHT22;23374;52.758;6.872;2022-08-03T13:58:58;31.60;99.90
37530;DHT22;23374;52.758;6.872;2022-08-03T14:01:19;31.70;1.00
37530;DHT22;23374;52.758;6.872;2022-08-03T14:03:39;31.70;99.90
37530;DHT22;23374;52.758;6.872;2022-08-03T14:06:00;31.60;1.70
37530;DHT22;23374;52.758;6.872;2022-08-03T14:08:20;31.60;1.00
37530;DHT22;23374;52.758;6.872;2022-08-03T14:10:42;31.50;1.00
37530;DHT22;23374;52.758;6.872;2022-08-03T14:13:04;31.60;1.00
37530;DHT22;23374;52.758;6.872;2022-08-03T14:15:25;31.70;1.00
37530;DHT22;23374;52.758;6.872;2022-08-03T14:17:47;31.80;1.00
37530;DHT22;23374;52.758;6.872;2022-08-03T14:20:08;31.90;1.00
37530;DHT22;23374;52.758;6.872;2022-08-03T14:22:31;32.00;1.00
37530;DHT22;23374;52.758;6.872;2022-08-03T14:24:51;32.00;1.00
37530;DHT22;23374;52.758;6.872;2022-08-03T14:27:11;32.00;1.00
37530;DHT22;23374;52.758;6.872;2022-08-03T14:29:32;32.00;1.00
37530;DHT22;23374;52.758;6.872;2022-08-03T14:31:52;32.00;1.00
37530;DHT22;23374;52.758;6.872;2022-08-03T14:34:12;32.00;1.00
37530;DHT22;23374;52.758;6.872;2022-08-03T14:36:32;32.00;1.00
37530;DHT22;23374;52.758;6.872;2022-08-03T14:38:52;31.90;67.00
37530;DHT22;23374;52.758;6.872;2022-08-03T14:41:12;31.80;9.20
37530;DHT22;23374;52.758;6.872;2022-08-03T14:43:32;31.90;99.90
37530;DHT22;23374;52.758;6.872;2022-08-03T14:45:52;32.00;95.50
37530;DHT22;23374;52.758;6.872;2022-08-03T14:48:12;32.00;1.00
37530;DHT22;23374;52.758;6.872;2022-08-03T14:50:33;32.00;99.90
37530;DHT22;23374;52.758;6.872;2022-08-03T14:52:54;32.00;1.00
37530;DHT22;23374;52.758;6.872;2022-08-03T14:55:14;31.90;62.80
37530;DHT22;23374;52.758;6.872;2022-08-03T14:57:34;31.90;41.00
37530;DHT22;23374;52.758;6.872;2022-08-03T14:59:54;31.90;36.10
37530;DHT22;23374;52.758;6.872;2022-08-03T15:02:14;31.90;56.90
37530;DHT22;23374;52.758;6.872;2022-08-03T15:04:34;31.90;1.00
37530;DHT22;23374;52.758;6.872;2022-08-03T15:06:55;31.90;1.00
37530;DHT22;23374;52.758;6.872;2022-08-03T15:09:15;31.80;1.00
37530;DHT22;23374;52.758;6.872;2022-08-03T15:11:35;31.80;1.00
37530;DHT22;23374;52.758;6.872;2022-08-03T15:13:56;31.70;1.00
37530;DHT22;23374;52.758;6.872;2022-08-03T15:16:16;31.60;96.10
37530;DHT22;23374;52.758;6.872;2022-08-03T15:18:36;31.60;1.00
37530;DHT22;23374;52.758;6.872;2022-08-03T15:20:57;31.70;1.00
37530;DHT22;23374;52.758;6.872;2022-08-03T15:23:17;31.70;1.00
37530;DHT22;23374;52.758;6.872;2022-08-03T15:25:38;31.70;1.00
37530;DHT22;23374;52.758;6.872;2022-08-03T15:27:58;31.70;1.00
37530;DHT22;23374;52.758;6.872;2022-08-03T15:30:18;31.60;1.00
37530;DHT22;23374;52.758;6.872;2022-08-03T15:32:39;31.60;1.00
37530;DHT22;23374;52.758;6.872;2022-08-03T15:35:00;31.60;1.00
37530;DHT22;23374;52.758;6.872;2022-08-03T15:37:20;31.50;1.00
37530;DHT22;23374;52.758;6.872;2022-08-03T15:39:41;31.50;1.00
37530;DHT22;23374;52.758;6.872;2022-08-03T15:42:01;31.50;1.00
37530;DHT22;23374;52.758;6.872;2022-08-03T15:44:21;31.50;1.00
37530;DHT22;23374;52.758;6.872;2022-08-03T15:46:41;31.40;1.00
37530;DHT22;23374;52.758;6.872;2022-08-03T15:49:01;31.40;1.00
37530;DHT22;23374;52.758;6.872;2022-08-03T15:51:22;31.30;1.00
37530;DHT22;23374;52.758;6.872;2022-08-03T15:53:42;31.30;1.00
37530;DHT22;23374;52.758;6.872;2022-08-03T15:56:04;31.20;1.00
37530;DHT22;23374;52.758;6.872;2022-08-03T15:58:26;31.10;1.00
37530;DHT22;23374;52.758;6.872;2022-08-03T16:00:49;31.10;1.00
37530;DHT22;23374;52.758;6.872;2022-08-03T16:03:09;31.10;1.00
37530;DHT22;23374;52.758;6.872;2022-08-03T16:05:29;31.00;1.00
37530;DHT22;23374;52.758;6.872;2022-08-03T16:07:49;30.90;1.00
37530;DHT22;23374;52.758;6.872;2022-08-03T16:10:15;30.90;1.00
37530;DHT22;23374;52.758;6.872;2022-08-03T16:12:36;30.80;1.00
37530;DHT22;23374;52.758;6.872;2022-08-03T16:14:57;30.90;1.00
37530;DHT22;23374;52.758;6.872;2022-08-03T16:17:18;30.90;1.00
37530;DHT22;23374;52.758;6.872;2022-08-03T16:19:39;31.00;1.00
37530;DHT22;23374;52.758;6.872;2022-08-03T18:26:07;31.40;1.00
37530;DHT22;23374;52.758;6.872;2022-08-03T18:28:30;31.50;1.00
37530;DHT22;23374;52.758;6.872;2022-08-03T18:30:51;31.50;1.00
37530;DHT22;23374;52.758;6.872;2022-08-03T18:33:13;31.60;1.00
37530;DHT22;23374;52.758;6.872;2022-08-03T18:35:34;31.60;1.00
37530;DHT22;23374;52.758;6.872;2022-08-03T18:37:55;31.50;1.00
37530;DHT22;23374;52.758;6.872;2022-08-03T18:40:17;31.40;1.00
37530;DHT22;23374;52.758;6.872;2022-08-03T18:42:38;31.30;1.00
37530;DHT22;23374;52.758;6.872;2022-08-03T18:44:58;31.20;1.00